Konya, Turkey
Current Conditions -  °F | °C
As of 3:50 AM on Friday 21 Nov 2014 (Local Time) from LTAN Reporting Station
Broken Clouds Broken Clouds  
Wind Chill: 41°   Ceiling: 9000
Heat Index: 45°   Visibility: 6mi
Dew Point: 41°   Wind: 6mph
Humidity: 87%   Direction: 330°NNW
Pressure: 29.94"   Gusts: NA
Location:  37.88°N, 32.48°E
Report Text: LTAN 210150Z 33005KT 9999 SCT035 BKN090 07/05 Q1014 BECMG 4000 BR
Loading
Personal Weather Stations






























Interactive Weather Map New forecast layout! Learn more

10-Day Weather Forecast

Advertisements
Track Severe Weather on mobile